sensor_id;sensor_type;location;lat;lon;timestamp;pressure;altitude;pressure_sealevel;temperature
11424;BMP180;5768;51.476;7.210;2022-07-25T00:01:19;99907.00;;;26.70
11424;BMP180;5768;51.476;7.210;2022-07-25T00:04:23;99903.00;;;26.60
11424;BMP180;5768;51.476;7.210;2022-07-25T00:07:26;99901.00;;;26.60
11424;BMP180;5768;51.476;7.210;2022-07-25T00:10:30;99895.00;;;26.60
11424;BMP180;5768;51.476;7.210;2022-07-25T00:13:35;99892.00;;;26.60
11424;BMP180;5768;51.476;7.210;2022-07-25T00:16:37;99883.00;;;26.60
11424;BMP180;5768;51.476;7.210;2022-07-25T00:19:40;99880.00;;;26.60
11424;BMP180;5768;51.476;7.210;2022-07-25T00:22:42;99870.00;;;26.60
11424;BMP180;5768;51.476;7.210;2022-07-25T00:25:46;99860.00;;;26.60
11424;BMP180;5768;51.476;7.210;2022-07-25T00:28:48;99860.00;;;26.60
11424;BMP180;5768;51.476;7.210;2022-07-25T00:31:51;99854.00;;;26.60
11424;BMP180;5768;51.476;7.210;2022-07-25T00:34:53;99849.00;;;26.60
11424;BMP180;5768;51.476;7.210;2022-07-25T00:37:55;99844.00;;;26.60
11424;BMP180;5768;51.476;7.210;2022-07-25T00:40:58;99842.00;;;26.60
11424;BMP180;5768;51.476;7.210;2022-07-25T00:44:01;99848.00;;;26.60
11424;BMP180;5768;51.476;7.210;2022-07-25T00:47:03;99847.00;;;26.50
11424;BMP180;5768;51.476;7.210;2022-07-25T00:50:07;99844.00;;;26.50
11424;BMP180;5768;51.476;7.210;2022-07-25T00:53:09;99833.00;;;26.50
11424;BMP180;5768;51.476;7.210;2022-07-25T00:56:14;99834.00;;;26.50
11424;BMP180;5768;51.476;7.210;2022-07-25T00:59:17;99836.00;;;26.50
11424;BMP180;5768;51.476;7.210;2022-07-25T01:02:19;99842.00;;;26.50
11424;BMP180;5768;51.476;7.210;2022-07-25T01:05:22;99828.00;;;26.50
11424;BMP180;5768;51.476;7.210;2022-07-25T01:08:24;99833.00;;;26.40
11424;BMP180;5768;51.476;7.210;2022-07-25T01:11:28;99826.00;;;26.40
11424;BMP180;5768;51.476;7.210;2022-07-25T01:14:30;99824.00;;;26.40
11424;BMP180;5768;51.476;7.210;2022-07-25T01:17:32;99822.00;;;26.40
11424;BMP180;5768;51.476;7.210;2022-07-25T01:20:36;99819.00;;;26.30
11424;BMP180;5768;51.476;7.210;2022-07-25T01:23:39;99823.00;;;26.30
11424;BMP180;5768;51.476;7.210;2022-07-25T01:26:44;99826.00;;;26.30
11424;BMP180;5768;51.476;7.210;2022-07-25T01:29:46;99821.00;;;26.30
11424;BMP180;5768;51.476;7.210;2022-07-25T01:32:48;99811.00;;;26.30
11424;BMP180;5768;51.476;7.210;2022-07-25T01:35:52;99813.00;;;26.20
11424;BMP180;5768;51.476;7.210;2022-07-25T01:38:54;99807.00;;;26.20
11424;BMP180;5768;51.476;7.210;2022-07-25T01:41:56;99817.00;;;26.20
11424;BMP180;5768;51.476;7.210;2022-07-25T01:44:59;99808.00;;;26.20
11424;BMP180;5768;51.476;7.210;2022-07-25T01:48:02;99808.00;;;26.20
11424;BMP180;5768;51.476;7.210;2022-07-25T01:51:06;99813.00;;;26.10
11424;BMP180;5768;51.476;7.210;2022-07-25T01:54:10;99809.00;;;26.10
11424;BMP180;5768;51.476;7.210;2022-07-25T01:57:12;99806.00;;;26.10
11424;BMP180;5768;51.476;7.210;2022-07-25T02:00:16;99800.00;;;26.00
11424;BMP180;5768;51.476;7.210;2022-07-25T02:03:18;99799.00;;;26.00
11424;BMP180;5768;51.476;7.210;2022-07-25T02:06:33;99802.00;;;26.00
11424;BMP180;5768;51.476;7.210;2022-07-25T02:09:35;99796.00;;;26.00
11424;BMP180;5768;51.476;7.210;2022-07-25T02:12:37;99788.00;;;25.90
11424;BMP180;5768;51.476;7.210;2022-07-25T02:15:40;99787.00;;;25.90
11424;BMP180;5768;51.476;7.210;2022-07-25T02:18:42;99779.00;;;25.90
11424;BMP180;5768;51.476;7.210;2022-07-25T02:21:46;99784.00;;;25.90
11424;BMP180;5768;51.476;7.210;2022-07-25T02:24:51;99779.00;;;25.90
11424;BMP180;5768;51.476;7.210;2022-07-25T02:27:53;99776.00;;;25.90
11424;BMP180;5768;51.476;7.210;2022-07-25T02:30:55;99768.00;;;25.90
11424;BMP180;5768;51.476;7.210;2022-07-25T02:33:57;99768.00;;;25.90
11424;BMP180;5768;51.476;7.210;2022-07-25T02:37:01;99770.00;;;25.80
11424;BMP180;5768;51.476;7.210;2022-07-25T02:40:04;99768.00;;;25.80
11424;BMP180;5768;51.476;7.210;2022-07-25T02:43:06;99756.00;;;25.80
11424;BMP180;5768;51.476;7.210;2022-07-25T02:46:09;99753.00;;;25.70
11424;BMP180;5768;51.476;7.210;2022-07-25T02:49:11;99751.00;;;25.70
11424;BMP180;5768;51.476;7.210;2022-07-25T02:52:15;99750.00;;;25.70
11424;BMP180;5768;51.476;7.210;2022-07-25T02:55:17;99746.00;;;25.70
11424;BMP180;5768;51.476;7.210;2022-07-25T02:58:19;99746.00;;;25.60
11424;BMP180;5768;51.476;7.210;2022-07-25T03:01:21;99741.00;;;25.60
11424;BMP180;5768;51.476;7.210;2022-07-25T03:04:23;99742.00;;;25.60
11424;BMP180;5768;51.476;7.210;2022-07-25T03:07:27;99731.00;;;25.50
11424;BMP180;5768;51.476;7.210;2022-07-25T03:10:29;99733.00;;;25.50
11424;BMP180;5768;51.476;7.210;2022-07-25T03:13:31;99732.00;;;25.50
11424;BMP180;5768;51.476;7.210;2022-07-25T03:16:33;99725.00;;;25.50
11424;BMP180;5768;51.476;7.210;2022-07-25T03:19:36;99718.00;;;25.40
11424;BMP180;5768;51.476;7.210;2022-07-25T03:22:39;99716.00;;;25.40
11424;BMP180;5768;51.476;7.210;2022-07-25T03:25:44;99718.00;;;25.40
11424;BMP180;5768;51.476;7.210;2022-07-25T03:28:46;99717.00;;;25.30
11424;BMP180;5768;51.476;7.210;2022-07-25T03:31:49;99719.00;;;25.30
11424;BMP180;5768;51.476;7.210;2022-07-25T03:34:51;99721.00;;;25.30
11424;BMP180;5768;51.476;7.210;2022-07-25T03:37:55;99711.00;;;25.30
11424;BMP180;5768;51.476;7.210;2022-07-25T03:40:57;99712.00;;;25.30
11424;BMP180;5768;51.476;7.210;2022-07-25T03:43:59;99701.00;;;25.20
11424;BMP180;5768;51.476;7.210;2022-07-25T03:47:01;99697.00;;;25.30
11424;BMP180;5768;51.476;7.210;2022-07-25T03:50:04;99701.00;;;25.30
11424;BMP180;5768;51.476;7.210;2022-07-25T03:53:08;99698.00;;;25.30
11424;BMP180;5768;51.476;7.210;2022-07-25T03:56:10;99688.00;;;25.30
11424;BMP180;5768;51.476;7.210;2022-07-25T03:59:16;99681.00;;;25.30
11424;BMP180;5768;51.476;7.210;2022-07-25T04:02:19;99681.00;;;25.30
11424;BMP180;5768;51.476;7.210;2022-07-25T04:05:21;99676.00;;;25.30
11424;BMP180;5768;51.476;7.210;2022-07-25T04:08:25;99677.00;;;25.30
11424;BMP180;5768;51.476;7.210;2022-07-25T04:11:27;99675.00;;;25.40
11424;BMP180;5768;51.476;7.210;2022-07-25T04:14:30;99669.00;;;25.50
11424;BMP180;5768;51.476;7.210;2022-07-25T04:17:32;99671.00;;;25.60
11424;BMP180;5768;51.476;7.210;2022-07-25T04:20:35;99664.00;;;25.70
11424;BMP180;5768;51.476;7.210;2022-07-25T04:23:38;99672.00;;;25.80
11424;BMP180;5768;51.476;7.210;2022-07-25T04:26:40;99672.00;;;25.90
11424;BMP180;5768;51.476;7.210;2022-07-25T04:29:43;99670.00;;;26.00
11424;BMP180;5768;51.476;7.210;2022-07-25T04:32:45;99664.00;;;26.00
11424;BMP180;5768;51.476;7.210;2022-07-25T04:35:47;99657.00;;;26.10
11424;BMP180;5768;51.476;7.210;2022-07-25T04:38:51;99651.00;;;26.20
11424;BMP180;5768;51.476;7.210;2022-07-25T04:41:53;99646.00;;;26.30
11424;BMP180;5768;51.476;7.210;2022-07-25T04:44:55;99644.00;;;26.30
11424;BMP180;5768;51.476;7.210;2022-07-25T04:47:57;99643.00;;;26.40
11424;BMP180;5768;51.476;7.210;2022-07-25T04:51:00;99645.00;;;26.50
11424;BMP180;5768;51.476;7.210;2022-07-25T04:54:04;99647.00;;;26.50
11424;BMP180;5768;51.476;7.210;2022-07-25T04:57:06;99647.00;;;26.60
11424;BMP180;5768;51.476;7.210;2022-07-25T05:00:10;99653.00;;;26.60
11424;BMP180;5768;51.476;7.210;2022-07-25T05:03:12;99657.00;;;26.60
11424;BMP180;5768;51.476;7.210;2022-07-25T05:06:14;99647.00;;;26.60
11424;BMP180;5768;51.476;7.210;2022-07-25T05:09:18;99639.00;;;26.70
11424;BMP180;5768;51.476;7.210;2022-07-25T05:12:20;99649.00;;;26.70
11424;BMP180;5768;51.476;7.210;2022-07-25T05:15:23;99643.00;;;26.80
11424;BMP180;5768;51.476;7.210;2022-07-25T05:18:25;99642.00;;;26.80
11424;BMP180;5768;51.476;7.210;2022-07-25T05:21:27;99641.00;;;26.90
11424;BMP180;5768;51.476;7.210;2022-07-25T05:24:34;99639.00;;;27.00
11424;BMP180;5768;51.476;7.210;2022-07-25T05:27:38;99634.00;;;27.10
11424;BMP180;5768;51.476;7.210;2022-07-25T05:30:40;99634.00;;;27.20
11424;BMP180;5768;51.476;7.210;2022-07-25T05:33:42;99622.00;;;27.30
11424;BMP180;5768;51.476;7.210;2022-07-25T05:36:45;99624.00;;;27.40
11424;BMP180;5768;51.476;7.210;2022-07-25T05:39:48;99612.00;;;27.50
11424;BMP180;5768;51.476;7.210;2022-07-25T05:42:51;99618.00;;;27.60
11424;BMP180;5768;51.476;7.210;2022-07-25T05:45:59;99616.00;;;27.70
11424;BMP180;5768;51.476;7.210;2022-07-25T05:49:01;99630.00;;;27.90
11424;BMP180;5768;51.476;7.210;2022-07-25T05:52:05;99638.00;;;27.90
11424;BMP180;5768;51.476;7.210;2022-07-25T05:55:09;99624.00;;;28.00
11424;BMP180;5768;51.476;7.210;2022-07-25T05:58:12;99606.00;;;28.10
11424;BMP180;5768;51.476;7.210;2022-07-25T06:01:15;99609.00;;;28.10
11424;BMP180;5768;51.476;7.210;2022-07-25T06:04:18;99623.00;;;28.20
11424;BMP180;5768;51.476;7.210;2022-07-25T06:07:20;99609.00;;;28.20
11424;BMP180;5768;51.476;7.210;2022-07-25T06:10:24;99609.00;;;28.30
11424;BMP180;5768;51.476;7.210;2022-07-25T06:13:29;99603.00;;;28.30
11424;BMP180;5768;51.476;7.210;2022-07-25T06:16:34;99606.00;;;28.30
11424;BMP180;5768;51.476;7.210;2022-07-25T06:19:36;99595.00;;;28.40
11424;BMP180;5768;51.476;7.210;2022-07-25T06:22:38;99598.00;;;28.40
11424;BMP180;5768;51.476;7.210;2022-07-25T06:25:42;99603.00;;;28.40
11424;BMP180;5768;51.476;7.210;2022-07-25T06:28:45;99599.00;;;28.40
11424;BMP180;5768;51.476;7.210;2022-07-25T06:31:47;99600.00;;;28.50
11424;BMP180;5768;51.476;7.210;2022-07-25T06:34:50;99594.00;;;28.50
11424;BMP180;5768;51.476;7.210;2022-07-25T06:37:52;99594.00;;;28.60
11424;BMP180;5768;51.476;7.210;2022-07-25T06:40:56;99593.00;;;28.70
11424;BMP180;5768;51.476;7.210;2022-07-25T06:43:58;99593.00;;;28.80
11424;BMP180;5768;51.476;7.210;2022-07-25T06:47:01;99600.00;;;28.90
11424;BMP180;5768;51.476;7.210;2022-07-25T06:50:04;99589.00;;;29.00
11424;BMP180;5768;51.476;7.210;2022-07-25T06:53:07;99598.00;;;29.10
11424;BMP180;5768;51.476;7.210;2022-07-25T06:56:11;99599.00;;;29.30
11424;BMP180;5768;51.476;7.210;2022-07-25T06:59:13;99595.00;;;29.40
11424;BMP180;5768;51.476;7.210;2022-07-25T07:02:15;99601.00;;;29.60
11424;BMP180;5768;51.476;7.210;2022-07-25T07:05:17;99590.00;;;29.60
11424;BMP180;5768;51.476;7.210;2022-07-25T07:08:20;99594.00;;;29.70
11424;BMP180;5768;51.476;7.210;2022-07-25T07:11:24;99590.00;;;29.70
11424;BMP180;5768;51.476;7.210;2022-07-25T07:14:26;99599.00;;;29.60
11424;BMP180;5768;51.476;7.210;2022-07-25T07:17:28;99595.00;;;29.60
11424;BMP180;5768;51.476;7.210;2022-07-25T07:20:31;99591.00;;;29.60
11424;BMP180;5768;51.476;7.210;2022-07-25T07:23:33;99594.00;;;29.60
11424;BMP180;5768;51.476;7.210;2022-07-25T07:26:38;99589.00;;;29.70
11424;BMP180;5768;51.476;7.210;2022-07-25T07:29:40;99578.00;;;29.80
11424;BMP180;5768;51.476;7.210;2022-07-25T07:32:43;99586.00;;;29.80
11424;BMP180;5768;51.476;7.210;2022-07-25T07:35:45;99580.00;;;29.90
11424;BMP180;5768;51.476;7.210;2022-07-25T07:38:50;99585.00;;;30.10
11424;BMP180;5768;51.476;7.210;2022-07-25T07:42:18;99585.00;;;30.20
11424;BMP180;5768;51.476;7.210;2022-07-25T07:45:23;99580.00;;;30.30
11424;BMP180;5768;51.476;7.210;2022-07-25T07:48:25;99577.00;;;30.40
11424;BMP180;5768;51.476;7.210;2022-07-25T07:51:27;99567.00;;;30.50
11424;BMP180;5768;51.476;7.210;2022-07-25T07:54:29;99574.00;;;30.80
11424;BMP180;5768;51.476;7.210;2022-07-25T07:57:50;99580.00;;;30.90
11424;BMP180;5768;51.476;7.210;2022-07-25T08:00:54;99579.00;;;31.00
11424;BMP180;5768;51.476;7.210;2022-07-25T08:03:58;99572.00;;;31.10
11424;BMP180;5768;51.476;7.210;2022-07-25T08:07:01;99576.00;;;31.20
11424;BMP180;5768;51.476;7.210;2022-07-25T08:10:04;99570.00;;;31.30
11424;BMP180;5768;51.476;7.210;2022-07-25T08:13:14;99573.00;;;31.30
11424;BMP180;5768;51.476;7.210;2022-07-25T08:16:17;99583.00;;;31.30
11424;BMP180;5768;51.476;7.210;2022-07-25T08:19:19;99588.00;;;31.30
11424;BMP180;5768;51.476;7.210;2022-07-25T08:22:22;99582.00;;;31.30
11424;BMP180;5768;51.476;7.210;2022-07-25T08:25:24;99585.00;;;31.30
11424;BMP180;5768;51.476;7.210;2022-07-25T08:28:28;99584.00;;;31.20
11424;BMP180;5768;51.476;7.210;2022-07-25T08:31:30;99586.00;;;31.30
11424;BMP180;5768;51.476;7.210;2022-07-25T08:34:33;99567.00;;;31.40
11424;BMP180;5768;51.476;7.210;2022-07-25T08:37:35;99592.00;;;31.40
11424;BMP180;5768;51.476;7.210;2022-07-25T08:40:38;99600.00;;;31.40
11424;BMP180;5768;51.476;7.210;2022-07-25T08:43:44;99602.00;;;31.50
11424;BMP180;5768;51.476;7.210;2022-07-25T08:46:49;99605.00;;;31.40
11424;BMP180;5768;51.476;7.210;2022-07-25T08:49:52;99594.00;;;31.40
11424;BMP180;5768;51.476;7.210;2022-07-25T08:52:55;99604.00;;;31.40
11424;BMP180;5768;51.476;7.210;2022-07-25T08:55:58;99606.00;;;31.50
11424;BMP180;5768;51.476;7.210;2022-07-25T08:59:01;99581.00;;;31.50
11424;BMP180;5768;51.476;7.210;2022-07-25T09:02:03;99575.00;;;31.50
11424;BMP180;5768;51.476;7.210;2022-07-25T09:05:08;99575.00;;;31.30
11424;BMP180;5768;51.476;7.210;2022-07-25T09:08:13;99568.00;;;31.20
11424;BMP180;5768;51.476;7.210;2022-07-25T09:11:26;99589.00;;;31.00
11424;BMP180;5768;51.476;7.210;2022-07-25T09:14:30;99599.00;;;30.80
11424;BMP180;5768;51.476;7.210;2022-07-25T09:17:32;99600.00;;;30.70
11424;BMP180;5768;51.476;7.210;2022-07-25T09:20:40;99577.00;;;30.60
11424;BMP180;5768;51.476;7.210;2022-07-25T09:23:43;99609.00;;;30.70
11424;BMP180;5768;51.476;7.210;2022-07-25T09:26:48;99598.00;;;30.70
11424;BMP180;5768;51.476;7.210;2022-07-25T09:29:54;99597.00;;;30.70
11424;BMP180;5768;51.476;7.210;2022-07-25T09:33:00;99591.00;;;30.80
11424;BMP180;5768;51.476;7.210;2022-07-25T09:36:10;99588.00;;;30.80
11424;BMP180;5768;51.476;7.210;2022-07-25T09:39:12;99601.00;;;30.80
11424;BMP180;5768;51.476;7.210;2022-07-25T09:42:26;99607.00;;;30.90
11424;BMP180;5768;51.476;7.210;2022-07-25T09:45:29;99603.00;;;31.00
11424;BMP180;5768;51.476;7.210;2022-07-25T09:48:32;99591.00;;;31.10
11424;BMP180;5768;51.476;7.210;2022-07-25T09:51:35;99617.00;;;31.20
11424;BMP180;5768;51.476;7.210;2022-07-25T09:54:38;99602.00;;;31.40
11424;BMP180;5768;51.476;7.210;2022-07-25T09:57:41;99603.00;;;31.50
11424;BMP180;5768;51.476;7.210;2022-07-25T10:00:47;99603.00;;;31.60
11424;BMP180;5768;51.476;7.210;2022-07-25T10:03:54;99593.00;;;31.70
11424;BMP180;5768;51.476;7.210;2022-07-25T10:07:04;99607.00;;;31.90
11424;BMP180;5768;51.476;7.210;2022-07-25T10:10:27;99604.00;;;32.10
11424;BMP180;5768;51.476;7.210;2022-07-25T10:13:32;99624.00;;;32.30
11424;BMP180;5768;51.476;7.210;2022-07-25T10:16:45;99629.00;;;32.20
11424;BMP180;5768;51.476;7.210;2022-07-25T10:19:48;99658.00;;;32.10
11424;BMP180;5768;51.476;7.210;2022-07-25T10:22:50;99625.00;;;31.80
11424;BMP180;5768;51.476;7.210;2022-07-25T10:26:06;99629.00;;;31.50
11424;BMP180;5768;51.476;7.210;2022-07-25T10:29:10;99631.00;;;31.40
11424;BMP180;5768;51.476;7.210;2022-07-25T10:32:15;99637.00;;;31.20
11424;BMP180;5768;51.476;7.210;2022-07-25T10:35:18;99653.00;;;31.20
11424;BMP180;5768;51.476;7.210;2022-07-25T10:38:24;99640.00;;;31.10
11424;BMP180;5768;51.476;7.210;2022-07-25T10:41:29;99638.00;;;31.10
11424;BMP180;5768;51.476;7.210;2022-07-25T10:44:41;99639.00;;;31.00
11424;BMP180;5768;51.476;7.210;2022-07-25T10:47:52;99635.00;;;31.00
11424;BMP180;5768;51.476;7.210;2022-07-25T10:51:00;99644.00;;;31.00
11424;BMP180;5768;51.476;7.210;2022-07-25T10:54:13;99628.00;;;30.80
11424;BMP180;5768;51.476;7.210;2022-07-25T10:57:16;99625.00;;;30.60
11424;BMP180;5768;51.476;7.210;2022-07-25T11:00:19;99619.00;;;30.50
11424;BMP180;5768;51.476;7.210;2022-07-25T11:03:24;99610.00;;;30.60
11424;BMP180;5768;51.476;7.210;2022-07-25T11:06:32;99620.00;;;30.80
11424;BMP180;5768;51.476;7.210;2022-07-25T11:09:35;99604.00;;;30.80
11424;BMP180;5768;51.476;7.210;2022-07-25T11:12:38;99609.00;;;30.80
11424;BMP180;5768;51.476;7.210;2022-07-25T11:15:40;99608.00;;;30.70
11424;BMP180;5768;51.476;7.210;2022-07-25T11:18:44;99617.00;;;30.60
11424;BMP180;5768;51.476;7.210;2022-07-25T11:21:48;99630.00;;;30.70
11424;BMP180;5768;51.476;7.210;2022-07-25T11:24:52;99647.00;;;30.90
11424;BMP180;5768;51.476;7.210;2022-07-25T11:27:58;99636.00;;;30.90
11424;BMP180;5768;51.476;7.210;2022-07-25T11:31:03;99646.00;;;30.90
11424;BMP180;5768;51.476;7.210;2022-07-25T11:34:07;99644.00;;;31.10
11424;BMP180;5768;51.476;7.210;2022-07-25T11:37:11;99647.00;;;31.40
11424;BMP180;5768;51.476;7.210;2022-07-25T11:40:15;99648.00;;;31.70
11424;BMP180;5768;51.476;7.210;2022-07-25T11:43:22;99644.00;;;32.10
11424;BMP180;5768;51.476;7.210;2022-07-25T11:46:25;99647.00;;;32.30
11424;BMP180;5768;51.476;7.210;2022-07-25T11:49:29;99648.00;;;32.50
11424;BMP180;5768;51.476;7.210;2022-07-25T11:52:34;99647.00;;;32.60
11424;BMP180;5768;51.476;7.210;2022-07-25T11:55:38;99655.00;;;32.60
11424;BMP180;5768;51.476;7.210;2022-07-25T11:58:40;99670.00;;;32.40
11424;BMP180;5768;51.476;7.210;2022-07-25T12:01:45;99669.00;;;32.10
11424;BMP180;5768;51.476;7.210;2022-07-25T12:04:56;99666.00;;;32.00
11424;BMP180;5768;51.476;7.210;2022-07-25T12:08:08;99677.00;;;32.10
11424;BMP180;5768;51.476;7.210;2022-07-25T12:11:28;99669.00;;;32.30
11424;BMP180;5768;51.476;7.210;2022-07-25T12:14:41;99676.00;;;32.60
11424;BMP180;5768;51.476;7.210;2022-07-25T12:17:43;99663.00;;;32.80
11424;BMP180;5768;51.476;7.210;2022-07-25T12:20:47;99676.00;;;32.80
11424;BMP180;5768;51.476;7.210;2022-07-25T12:23:49;99669.00;;;32.80
11424;BMP180;5768;51.476;7.210;2022-07-25T12:26:51;99664.00;;;32.90
11424;BMP180;5768;51.476;7.210;2022-07-25T12:29:53;99673.00;;;33.00
11424;BMP180;5768;51.476;7.210;2022-07-25T12:32:57;99668.00;;;33.20
11424;BMP180;5768;51.476;7.210;2022-07-25T12:36:02;99676.00;;;33.30
11424;BMP180;5768;51.476;7.210;2022-07-25T12:39:05;99677.00;;;33.50
11424;BMP180;5768;51.476;7.210;2022-07-25T12:42:07;99676.00;;;33.50
11424;BMP180;5768;51.476;7.210;2022-07-25T12:45:10;99668.00;;;33.20
11424;BMP180;5768;51.476;7.210;2022-07-25T12:48:13;99675.00;;;33.50
11424;BMP180;5768;51.476;7.210;2022-07-25T12:51:17;99677.00;;;33.60
11424;BMP180;5768;51.476;7.210;2022-07-25T12:54:20;99686.00;;;34.10
11424;BMP180;5768;51.476;7.210;2022-07-25T12:57:22;99686.00;;;34.70
11424;BMP180;5768;51.476;7.210;2022-07-25T13:00:26;99681.00;;;35.10
11424;BMP180;5768;51.476;7.210;2022-07-25T13:03:29;99697.00;;;34.70
11424;BMP180;5768;51.476;7.210;2022-07-25T13:06:32;99685.00;;;34.10
11424;BMP180;5768;51.476;7.210;2022-07-25T13:09:35;99685.00;;;33.70
11424;BMP180;5768;51.476;7.210;2022-07-25T13:12:37;99686.00;;;33.50
11424;BMP180;5768;51.476;7.210;2022-07-25T13:15:40;99685.00;;;33.20
11424;BMP180;5768;51.476;7.210;2022-07-25T13:18:42;99685.00;;;33.10
11424;BMP180;5768;51.476;7.210;2022-07-25T13:21:46;99678.00;;;33.10
11424;BMP180;5768;51.476;7.210;2022-07-25T13:24:48;99690.00;;;33.40
11424;BMP180;5768;51.476;7.210;2022-07-25T13:27:51;99690.00;;;33.50
11424;BMP180;5768;51.476;7.210;2022-07-25T13:30:53;99697.00;;;33.50
11424;BMP180;5768;51.476;7.210;2022-07-25T13:33:55;99687.00;;;33.20
11424;BMP180;5768;51.476;7.210;2022-07-25T13:36:59;99682.00;;;33.20
11424;BMP180;5768;51.476;7.210;2022-07-25T13:40:01;99697.00;;;33.60
11424;BMP180;5768;51.476;7.210;2022-07-25T13:43:04;99690.00;;;34.50
11424;BMP180;5768;51.476;7.210;2022-07-25T13:46:06;99686.00;;;34.90
11424;BMP180;5768;51.476;7.210;2022-07-25T13:49:08;99699.00;;;35.50
11424;BMP180;5768;51.476;7.210;2022-07-25T13:52:13;99687.00;;;36.70
11424;BMP180;5768;51.476;7.210;2022-07-25T13:55:15;99689.00;;;36.50
11424;BMP180;5768;51.476;7.210;2022-07-25T13:58:19;99681.00;;;37.90
11424;BMP180;5768;51.476;7.210;2022-07-25T14:01:21;99696.00;;;39.10
11424;BMP180;5768;51.476;7.210;2022-07-25T14:04:23;99696.00;;;39.10
11424;BMP180;5768;51.476;7.210;2022-07-25T14:07:27;99694.00;;;39.10
11424;BMP180;5768;51.476;7.210;2022-07-25T14:10:29;99684.00;;;38.60
11424;BMP180;5768;51.476;7.210;2022-07-25T14:13:31;99701.00;;;37.20
11424;BMP180;5768;51.476;7.210;2022-07-25T14:16:33;99698.00;;;36.20
11424;BMP180;5768;51.476;7.210;2022-07-25T14:19:36;99707.00;;;35.80
11424;BMP180;5768;51.476;7.210;2022-07-25T14:22:39;99699.00;;;35.00
11424;BMP180;5768;51.476;7.210;2022-07-25T14:25:43;99697.00;;;34.90
11424;BMP180;5768;51.476;7.210;2022-07-25T14:28:46;99704.00;;;34.30
11424;BMP180;5768;51.476;7.210;2022-07-25T14:31:48;99715.00;;;33.90
11424;BMP180;5768;51.476;7.210;2022-07-25T14:34:51;99714.00;;;33.50
11424;BMP180;5768;51.476;7.210;2022-07-25T14:37:54;99714.00;;;33.10
11424;BMP180;5768;51.476;7.210;2022-07-25T14:40:56;99720.00;;;33.10
11424;BMP180;5768;51.476;7.210;2022-07-25T14:43:58;99719.00;;;33.50
11424;BMP180;5768;51.476;7.210;2022-07-25T14:47:01;99702.00;;;33.40
11424;BMP180;5768;51.476;7.210;2022-07-25T14:50:04;99701.00;;;33.20
11424;BMP180;5768;51.476;7.210;2022-07-25T14:53:07;99714.00;;;33.20
11424;BMP180;5768;51.476;7.210;2022-07-25T14:56:10;99704.00;;;33.10
11424;BMP180;5768;51.476;7.210;2022-07-25T14:59:12;99711.00;;;33.20
11424;BMP180;5768;51.476;7.210;2022-07-25T15:02:17;99722.00;;;33.20
11424;BMP180;5768;51.476;7.210;2022-07-25T15:05:20;99729.00;;;32.70
11424;BMP180;5768;51.476;7.210;2022-07-25T15:08:23;99724.00;;;32.00
11424;BMP180;5768;51.476;7.210;2022-07-25T15:11:26;99739.00;;;31.40
11424;BMP180;5768;51.476;7.210;2022-07-25T15:14:28;99727.00;;;30.90
11424;BMP180;5768;51.476;7.210;2022-07-25T15:17:31;99744.00;;;30.50
11424;BMP180;5768;51.476;7.210;2022-07-25T15:20:34;99754.00;;;30.20
11424;BMP180;5768;51.476;7.210;2022-07-25T15:23:43;99742.00;;;30.00
11424;BMP180;5768;51.476;7.210;2022-07-25T15:26:48;99760.00;;;29.80
11424;BMP180;5768;51.476;7.210;2022-07-25T15:29:51;99751.00;;;29.70
11424;BMP180;5768;51.476;7.210;2022-07-25T15:32:54;99762.00;;;29.70
11424;BMP180;5768;51.476;7.210;2022-07-25T15:35:56;99743.00;;;29.50
11424;BMP180;5768;51.476;7.210;2022-07-25T15:39:00;99770.00;;;29.30
11424;BMP180;5768;51.476;7.210;2022-07-25T15:42:02;99773.00;;;29.10
11424;BMP180;5768;51.476;7.210;2022-07-25T15:45:11;99760.00;;;29.00
11424;BMP180;5768;51.476;7.210;2022-07-25T15:48:15;99797.00;;;29.10
11424;BMP180;5768;51.476;7.210;2022-07-25T15:51:17;99771.00;;;29.20
11424;BMP180;5768;51.476;7.210;2022-07-25T15:54:21;99798.00;;;29.20
11424;BMP180;5768;51.476;7.210;2022-07-25T15:57:23;99792.00;;;28.80
11424;BMP180;5768;51.476;7.210;2022-07-25T16:00:26;99797.00;;;28.40
11424;BMP180;5768;51.476;7.210;2022-07-25T16:03:28;99789.00;;;28.20
11424;BMP180;5768;51.476;7.210;2022-07-25T16:06:30;99788.00;;;28.00
11424;BMP180;5768;51.476;7.210;2022-07-25T16:09:34;99771.00;;;28.00
11424;BMP180;5768;51.476;7.210;2022-07-25T16:12:37;99789.00;;;27.80
11424;BMP180;5768;51.476;7.210;2022-07-25T16:15:39;99787.00;;;27.80
11424;BMP180;5768;51.476;7.210;2022-07-25T16:18:42;99768.00;;;28.00
11424;BMP180;5768;51.476;7.210;2022-07-25T16:21:44;99786.00;;;28.20
11424;BMP180;5768;51.476;7.210;2022-07-25T16:24:51;99789.00;;;28.70
11424;BMP180;5768;51.476;7.210;2022-07-25T16:27:54;99788.00;;;29.40
11424;BMP180;5768;51.476;7.210;2022-07-25T16:30:56;99802.00;;;29.90
11424;BMP180;5768;51.476;7.210;2022-07-25T16:33:59;99780.00;;;29.90
11424;BMP180;5768;51.476;7.210;2022-07-25T16:37:02;99791.00;;;30.30
11424;BMP180;5768;51.476;7.210;2022-07-25T16:40:08;99795.00;;;30.80
11424;BMP180;5768;51.476;7.210;2022-07-25T16:43:10;99797.00;;;31.00
11424;BMP180;5768;51.476;7.210;2022-07-25T16:46:12;99798.00;;;30.80
11424;BMP180;5768;51.476;7.210;2022-07-25T16:49:17;99799.00;;;31.40
11424;BMP180;5768;51.476;7.210;2022-07-25T16:52:20;99803.00;;;32.70
11424;BMP180;5768;51.476;7.210;2022-07-25T16:55:24;99800.00;;;33.70
11424;BMP180;5768;51.476;7.210;2022-07-25T16:58:26;99811.00;;;32.90
11424;BMP180;5768;51.476;7.210;2022-07-25T17:01:29;99797.00;;;31.90
11424;BMP180;5768;51.476;7.210;2022-07-25T17:04:31;99800.00;;;31.20
11424;BMP180;5768;51.476;7.210;2022-07-25T17:07:33;99809.00;;;30.40
11424;BMP180;5768;51.476;7.210;2022-07-25T17:10:37;99804.00;;;29.80
11424;BMP180;5768;51.476;7.210;2022-07-25T17:13:39;99803.00;;;29.40
11424;BMP180;5768;51.476;7.210;2022-07-25T17:16:41;99812.00;;;29.20
11424;BMP180;5768;51.476;7.210;2022-07-25T17:19:44;99809.00;;;29.10
11424;BMP180;5768;51.476;7.210;2022-07-25T17:22:46;99818.00;;;29.10
11424;BMP180;5768;51.476;7.210;2022-07-25T17:25:50;99812.00;;;29.00
11424;BMP180;5768;51.476;7.210;2022-07-25T17:28:53;99813.00;;;29.90
11424;BMP180;5768;51.476;7.210;2022-07-25T17:31:56;99806.00;;;32.50
11424;BMP180;5768;51.476;7.210;2022-07-25T17:34:58;99817.00;;;34.30
11424;BMP180;5768;51.476;7.210;2022-07-25T17:38:01;99820.00;;;35.60
11424;BMP180;5768;51.476;7.210;2022-07-25T17:41:05;99808.00;;;36.80
11424;BMP180;5768;51.476;7.210;2022-07-25T17:44:07;99811.00;;;37.50
11424;BMP180;5768;51.476;7.210;2022-07-25T17:47:10;99819.00;;;37.40
11424;BMP180;5768;51.476;7.210;2022-07-25T17:50:12;99819.00;;;37.60
11424;BMP180;5768;51.476;7.210;2022-07-25T17:53:19;99821.00;;;36.70